Verdure, UT

2:57 PM MST on February 27, 2017 (GMT -0700)
MCJSU1 | | Change Station
Active Advisory: Winter Weather Advisory

Elev 8964 ft 37.81 °N, 109.49 °W | Updated 1 hour ago

Overcast
Overcast
29.0 °F
Feels Like 29.0 °F
N
-
Wind Variable Wind from North

Today
High -- | Low -- °F
--% Chance of Precip.
Yesterday
High -- | Low -- °F
Precip. -- in
Pressure 29.81 in
Visibility 10.0 miles
Clouds Overcast 6500 ft
Dew Point Not available.
Humidity Not available.
Rainfall 0.00 in
Snow Depth Not available.
6:51 AM 6:09 PM
New Moon, 2% visible
METAR KBDG 272135Z AUTO 24014G21KT 10SM OVC065 07/M08 A2981 RMK AO1 T00731076
Pressure 29.81 in
Visibility 10.0 miles
Clouds Overcast 6500 ft
Dew Point Not available.
Humidity Not available.
Rainfall 0.00 in
Snow Depth Not available.
6:51 AM 6:09 PM
New Moon, 2% visible
METAR KBDG 272135Z AUTO 24014G21KT 10SM OVC065 07/M08 A2981 RMK AO1 T00731076

Get Your Daily Forecast Email!

Thanks for signing up!

Be on the lookout for a verification email in your inbox.

You'll start receiving the daily forecast at 8 AM.

×

10-Day Weather Forecast

Almanac

Astronomy

Feb. 27, 2017 Rise Set
Actual Time
Civil Twilight
Nautical Twilight
Astronomical Twilight
Moon
Length of Visible Light
Length of Day
Tomorrow will be .
, % of the Moon is Illuminated

Today's Extremes

State Highs State Lows

Community

WunderPhotos

Upload Photos

1,962,540 photos uploaded!

WunderBlog® & News

Nearby

Air Quality

  Air Quality AQ Index Pollutant
Not available.

Snow Depth

Station Depth Elevation

Earthquake Activity

City Distance Mag. Time & Date
Minimum magnitude displayed is 2.5.

Coastal Water Temperatures

Place Temperature

Stations

Nearby Weather Stations

Station Location Temp. Windchill Dew Point Humidity Wind Precip. Elev Updated Type
                   

Watches & Warnings

Winter Weather Advisory
Issued: 2:47 PM MST Feb. 27, 2017 – National Weather Service

... Winter Weather Advisory remains in effect until midnight MST
Tuesday night...

* locations include... Aspen, Vail, Snowmass, Ridgway, Glade Park,
   and Monticello.

* Timing... snow will become widespread and lower in elevation
throughout the day. Snow, heavy at times, will then continue
into Tuesday night.

* Snow accumulation... 6 to 12 inches.

* Winds... west 15 to 25 mph with gusts up to 50 mph.

* Visibility... less than a mile at times in moderate snow and
blowing snow.

* Impacts... moderate snowfall and strong winds will create
hazardous driving conditions. Mountain roadways will be icy
and/or snowpacked at times.

Precautionary/preparedness actions...

A Winter Weather Advisory means that periods of snow and/or
blowing snow will cause travel difficulties. Be prepared for
slippery roads and limited visibilities, and use caution while
driving.